sensor_id;sensor_type;location;lat;lon;timestamp;temperature;humidity
29765;DHT22;16667;-33.884;151.182;2022-08-25T00:01:10;14.20;99.90
29765;DHT22;16667;-33.884;151.182;2022-08-25T00:03:41;14.30;99.90
29765;DHT22;16667;-33.884;151.182;2022-08-25T00:06:13;14.50;99.90
29765;DHT22;16667;-33.884;151.182;2022-08-25T00:08:46;14.40;99.90
29765;DHT22;16667;-33.884;151.182;2022-08-25T00:11:19;14.50;99.90
29765;DHT22;16667;-33.884;151.182;2022-08-25T00:13:54;14.70;99.90
29765;DHT22;16667;-33.884;151.182;2022-08-25T00:16:25;14.80;99.90
29765;DHT22;16667;-33.884;151.182;2022-08-25T00:18:58;14.90;99.90
29765;DHT22;16667;-33.884;151.182;2022-08-25T00:21:30;15.10;99.90
29765;DHT22;16667;-33.884;151.182;2022-08-25T00:24:03;15.20;99.90
29765;DHT22;16667;-33.884;151.182;2022-08-25T00:26:39;15.40;99.90
29765;DHT22;16667;-33.884;151.182;2022-08-25T00:29:11;15.60;99.90
29765;DHT22;16667;-33.884;151.182;2022-08-25T00:31:42;15.70;99.90
29765;DHT22;16667;-33.884;151.182;2022-08-25T00:34:17;15.80;99.90
29765;DHT22;16667;-33.884;151.182;2022-08-25T00:36:48;16.00;99.90
29765;DHT22;16667;-33.884;151.182;2022-08-25T00:39:22;16.10;99.90
29765;DHT22;16667;-33.884;151.182;2022-08-25T00:41:55;16.10;99.90
29765;DHT22;16667;-33.884;151.182;2022-08-25T00:44:28;16.10;99.90
29765;DHT22;16667;-33.884;151.182;2022-08-25T00:47:00;16.10;99.90
29765;DHT22;16667;-33.884;151.182;2022-08-25T00:49:33;16.10;99.90
29765;DHT22;16667;-33.884;151.182;2022-08-25T00:52:07;16.10;99.90
29765;DHT22;16667;-33.884;151.182;2022-08-25T00:54:43;16.20;99.90
29765;DHT22;16667;-33.884;151.182;2022-08-25T00:57:17;16.30;99.90
29765;DHT22;16667;-33.884;151.182;2022-08-25T00:59:49;16.30;99.90
29765;DHT22;16667;-33.884;151.182;2022-08-25T01:02:20;16.40;99.90
29765;DHT22;16667;-33.884;151.182;2022-08-25T01:04:53;16.50;99.90
29765;DHT22;16667;-33.884;151.182;2022-08-25T01:07:23;16.30;99.90
29765;DHT22;16667;-33.884;151.182;2022-08-25T01:09:56;16.00;99.90
29765;DHT22;16667;-33.884;151.182;2022-08-25T01:12:27;16.50;99.90
29765;DHT22;16667;-33.884;151.182;2022-08-25T01:14:58;16.80;99.90
29765;DHT22;16667;-33.884;151.182;2022-08-25T01:17:34;17.30;99.90
29765;DHT22;16667;-33.884;151.182;2022-08-25T01:20:09;17.60;99.90
29765;DHT22;16667;-33.884;151.182;2022-08-25T01:22:42;17.70;99.90
29765;DHT22;16667;-33.884;151.182;2022-08-25T01:25:22;17.60;99.90
29765;DHT22;16667;-33.884;151.182;2022-08-25T01:27:56;17.50;99.90
29765;DHT22;16667;-33.884;151.182;2022-08-25T01:30:27;17.50;99.90
29765;DHT22;16667;-33.884;151.182;2022-08-25T01:32:58;17.50;99.90
29765;DHT22;16667;-33.884;151.182;2022-08-25T01:35:28;17.60;99.90
29765;DHT22;16667;-33.884;151.182;2022-08-25T01:38:03;17.70;99.90
29765;DHT22;16667;-33.884;151.182;2022-08-25T01:40:34;17.60;99.90
29765;DHT22;16667;-33.884;151.182;2022-08-25T01:43:15;17.60;99.90
29765;DHT22;16667;-33.884;151.182;2022-08-25T01:45:49;17.60;99.90
29765;DHT22;16667;-33.884;151.182;2022-08-25T01:48:19;17.60;99.90
29765;DHT22;16667;-33.884;151.182;2022-08-25T01:50:50;17.70;99.90
29765;DHT22;16667;-33.884;151.182;2022-08-25T01:53:25;17.80;99.90
29765;DHT22;16667;-33.884;151.182;2022-08-25T01:55:56;17.90;99.90
29765;DHT22;16667;-33.884;151.182;2022-08-25T01:58:34;17.90;99.90
29765;DHT22;16667;-33.884;151.182;2022-08-25T02:01:07;17.80;99.90
29765;DHT22;16667;-33.884;151.182;2022-08-25T02:03:42;17.70;99.90
29765;DHT22;16667;-33.884;151.182;2022-08-25T02:06:14;17.50;99.90
29765;DHT22;16667;-33.884;151.182;2022-08-25T02:08:50;17.30;99.90
29765;DHT22;16667;-33.884;151.182;2022-08-25T02:11:22;17.30;99.90
29765;DHT22;16667;-33.884;151.182;2022-08-25T02:13:52;17.30;99.90
29765;DHT22;16667;-33.884;151.182;2022-08-25T02:16:25;17.20;99.90
29765;DHT22;16667;-33.884;151.182;2022-08-25T02:18:57;17.20;99.90
29765;DHT22;16667;-33.884;151.182;2022-08-25T02:21:28;17.10;99.90
29765;DHT22;16667;-33.884;151.182;2022-08-25T02:24:01;17.00;99.90
29765;DHT22;16667;-33.884;151.182;2022-08-25T02:26:33;16.90;99.90
29765;DHT22;16667;-33.884;151.182;2022-08-25T02:29:05;16.80;99.90
29765;DHT22;16667;-33.884;151.182;2022-08-25T02:31:36;16.60;99.90
29765;DHT22;16667;-33.884;151.182;2022-08-25T02:34:08;16.50;99.90
29765;DHT22;16667;-33.884;151.182;2022-08-25T02:36:42;16.60;99.90
29765;DHT22;16667;-33.884;151.182;2022-08-25T02:39:15;16.70;99.90
29765;DHT22;16667;-33.884;151.182;2022-08-25T02:41:45;17.10;99.90
29765;DHT22;16667;-33.884;151.182;2022-08-25T02:44:16;17.40;99.90
29765;DHT22;16667;-33.884;151.182;2022-08-25T02:46:47;17.60;99.90
29765;DHT22;16667;-33.884;151.182;2022-08-25T02:49:18;18.50;99.90
29765;DHT22;16667;-33.884;151.182;2022-08-25T02:51:49;17.90;99.90
29765;DHT22;16667;-33.884;151.182;2022-08-25T02:54:22;18.10;99.90
29765;DHT22;16667;-33.884;151.182;2022-08-25T02:56:53;18.10;99.90
29765;DHT22;16667;-33.884;151.182;2022-08-25T02:59:24;17.70;99.90
29765;DHT22;16667;-33.884;151.182;2022-08-25T03:01:55;17.40;99.90
29765;DHT22;16667;-33.884;151.182;2022-08-25T03:04:26;17.20;99.90
29765;DHT22;16667;-33.884;151.182;2022-08-25T03:06:57;17.00;99.90
29765;DHT22;16667;-33.884;151.182;2022-08-25T03:09:30;16.90;99.90
29765;DHT22;16667;-33.884;151.182;2022-08-25T03:12:01;16.70;99.90
29765;DHT22;16667;-33.884;151.182;2022-08-25T03:14:31;16.60;99.90
29765;DHT22;16667;-33.884;151.182;2022-08-25T03:17:02;16.50;99.90
29765;DHT22;16667;-33.884;151.182;2022-08-25T03:19:33;16.40;99.90
29765;DHT22;16667;-33.884;151.182;2022-08-25T03:22:05;16.30;99.90
29765;DHT22;16667;-33.884;151.182;2022-08-25T03:24:38;16.20;99.90
29765;DHT22;16667;-33.884;151.182;2022-08-25T03:27:09;16.10;99.90
29765;DHT22;16667;-33.884;151.182;2022-08-25T03:29:39;16.00;99.90
29765;DHT22;16667;-33.884;151.182;2022-08-25T03:32:10;16.00;99.90
29765;DHT22;16667;-33.884;151.182;2022-08-25T03:34:40;15.90;99.90
29765;DHT22;16667;-33.884;151.182;2022-08-25T03:37:11;15.90;99.90
29765;DHT22;16667;-33.884;151.182;2022-08-25T03:39:44;16.00;99.90
29765;DHT22;16667;-33.884;151.182;2022-08-25T03:42:14;16.00;99.90
29765;DHT22;16667;-33.884;151.182;2022-08-25T03:44:45;16.00;99.90
29765;DHT22;16667;-33.884;151.182;2022-08-25T03:47:16;16.00;99.90
29765;DHT22;16667;-33.884;151.182;2022-08-25T03:49:47;16.00;99.90
29765;DHT22;16667;-33.884;151.182;2022-08-25T03:52:18;16.00;99.90
29765;DHT22;16667;-33.884;151.182;2022-08-25T03:54:53;16.20;99.90
29765;DHT22;16667;-33.884;151.182;2022-08-25T03:57:24;16.30;99.90
29765;DHT22;16667;-33.884;151.182;2022-08-25T03:59:55;16.50;99.90
29765;DHT22;16667;-33.884;151.182;2022-08-25T04:02:26;16.50;99.90
29765;DHT22;16667;-33.884;151.182;2022-08-25T04:04:56;14.80;99.90
29765;DHT22;16667;-33.884;151.182;2022-08-25T04:07:27;16.60;99.90
29765;DHT22;16667;-33.884;151.182;2022-08-25T04:10:00;16.50;99.90
29765;DHT22;16667;-33.884;151.182;2022-08-25T04:12:31;16.60;99.90
29765;DHT22;16667;-33.884;151.182;2022-08-25T04:15:02;16.70;99.90
29765;DHT22;16667;-33.884;151.182;2022-08-25T04:17:35;16.60;99.90
29765;DHT22;16667;-33.884;151.182;2022-08-25T04:20:07;16.70;99.90
29765;DHT22;16667;-33.884;151.182;2022-08-25T04:22:38;16.60;99.90
29765;DHT22;16667;-33.884;151.182;2022-08-25T04:25:14;16.60;99.90
29765;DHT22;16667;-33.884;151.182;2022-08-25T04:27:46;16.60;99.90
29765;DHT22;16667;-33.884;151.182;2022-08-25T04:30:17;16.50;99.90
29765;DHT22;16667;-33.884;151.182;2022-08-25T04:32:48;16.40;99.90
29765;DHT22;16667;-33.884;151.182;2022-08-25T04:35:22;16.30;99.90
29765;DHT22;16667;-33.884;151.182;2022-08-25T04:37:53;16.20;99.90
29765;DHT22;16667;-33.884;151.182;2022-08-25T04:40:26;16.20;99.90
29765;DHT22;16667;-33.884;151.182;2022-08-25T04:42:59;16.10;99.90
29765;DHT22;16667;-33.884;151.182;2022-08-25T04:45:30;16.10;99.90
29765;DHT22;16667;-33.884;151.182;2022-08-25T04:48:01;16.10;99.90
29765;DHT22;16667;-33.884;151.182;2022-08-25T04:50:32;16.00;99.90
29765;DHT22;16667;-33.884;151.182;2022-08-25T04:53:03;16.00;99.90
29765;DHT22;16667;-33.884;151.182;2022-08-25T04:55:44;15.10;99.90
29765;DHT22;16667;-33.884;151.182;2022-08-25T04:58:15;16.00;99.90
29765;DHT22;16667;-33.884;151.182;2022-08-25T05:00:59;15.90;99.90
29765;DHT22;16667;-33.884;151.182;2022-08-25T05:03:43;15.90;99.90
29765;DHT22;16667;-33.884;151.182;2022-08-25T05:06:15;15.80;99.90
29765;DHT22;16667;-33.884;151.182;2022-08-25T05:08:47;15.80;99.90
29765;DHT22;16667;-33.884;151.182;2022-08-25T05:11:25;15.80;99.90
29765;DHT22;16667;-33.884;151.182;2022-08-25T05:14:00;15.80;99.90
29765;DHT22;16667;-33.884;151.182;2022-08-25T05:16:51;15.80;99.90
29765;DHT22;16667;-33.884;151.182;2022-08-25T05:19:41;15.90;99.90
29765;DHT22;16667;-33.884;151.182;2022-08-25T05:22:12;15.90;99.90
29765;DHT22;16667;-33.884;151.182;2022-08-25T05:24:43;15.80;99.90
29765;DHT22;16667;-33.884;151.182;2022-08-25T05:27:15;15.80;99.90
29765;DHT22;16667;-33.884;151.182;2022-08-25T05:29:46;15.80;99.90
29765;DHT22;16667;-33.884;151.182;2022-08-25T05:32:18;15.80;99.90
29765;DHT22;16667;-33.884;151.182;2022-08-25T05:34:55;15.80;99.90
29765;DHT22;16667;-33.884;151.182;2022-08-25T05:37:26;15.80;99.90
29765;DHT22;16667;-33.884;151.182;2022-08-25T05:39:59;15.80;99.90
29765;DHT22;16667;-33.884;151.182;2022-08-25T05:42:32;15.70;99.90
29765;DHT22;16667;-33.884;151.182;2022-08-25T05:45:02;15.70;99.90
29765;DHT22;16667;-33.884;151.182;2022-08-25T05:47:34;15.70;99.90
29765;DHT22;16667;-33.884;151.182;2022-08-25T05:50:07;15.70;99.90
29765;DHT22;16667;-33.884;151.182;2022-08-25T05:52:38;15.70;99.90
29765;DHT22;16667;-33.884;151.182;2022-08-25T05:55:09;15.70;99.90
29765;DHT22;16667;-33.884;151.182;2022-08-25T05:57:41;15.70;99.90
29765;DHT22;16667;-33.884;151.182;2022-08-25T06:00:13;15.70;99.90
29765;DHT22;16667;-33.884;151.182;2022-08-25T06:02:44;15.80;99.90
29765;DHT22;16667;-33.884;151.182;2022-08-25T06:05:16;15.80;99.90
29765;DHT22;16667;-33.884;151.182;2022-08-25T06:07:49;15.80;99.90
29765;DHT22;16667;-33.884;151.182;2022-08-25T06:10:20;15.80;99.90
29765;DHT22;16667;-33.884;151.182;2022-08-25T06:12:56;15.80;99.90
29765;DHT22;16667;-33.884;151.182;2022-08-25T06:15:31;15.80;99.90
29765;DHT22;16667;-33.884;151.182;2022-08-25T06:18:03;15.80;99.90
29765;DHT22;16667;-33.884;151.182;2022-08-25T06:20:34;15.80;99.90
29765;DHT22;16667;-33.884;151.182;2022-08-25T06:23:05;15.80;99.90
29765;DHT22;16667;-33.884;151.182;2022-08-25T06:25:36;15.80;99.90
29765;DHT22;16667;-33.884;151.182;2022-08-25T06:28:09;15.80;99.90
29765;DHT22;16667;-33.884;151.182;2022-08-25T06:30:40;15.80;99.90
29765;DHT22;16667;-33.884;151.182;2022-08-25T06:33:11;15.80;99.90
29765;DHT22;16667;-33.884;151.182;2022-08-25T06:35:42;15.80;99.90
29765;DHT22;16667;-33.884;151.182;2022-08-25T06:38:13;15.70;99.90
29765;DHT22;16667;-33.884;151.182;2022-08-25T06:40:50;15.70;99.90
29765;DHT22;16667;-33.884;151.182;2022-08-25T06:43:26;15.80;99.90
29765;DHT22;16667;-33.884;151.182;2022-08-25T06:45:57;15.80;99.90
29765;DHT22;16667;-33.884;151.182;2022-08-25T06:48:29;15.80;99.90
29765;DHT22;16667;-33.884;151.182;2022-08-25T06:51:04;15.80;99.90
29765;DHT22;16667;-33.884;151.182;2022-08-25T06:53:35;15.80;99.90
29765;DHT22;16667;-33.884;151.182;2022-08-25T06:56:06;15.80;99.90
29765;DHT22;16667;-33.884;151.182;2022-08-25T06:58:39;15.70;99.90
29765;DHT22;16667;-33.884;151.182;2022-08-25T07:01:11;15.70;99.90
29765;DHT22;16667;-33.884;151.182;2022-08-25T07:03:43;15.70;99.90
29765;DHT22;16667;-33.884;151.182;2022-08-25T07:06:14;15.70;99.90
29765;DHT22;16667;-33.884;151.182;2022-08-25T07:08:45;15.70;99.90
29765;DHT22;16667;-33.884;151.182;2022-08-25T07:11:16;15.70;99.90
29765;DHT22;16667;-33.884;151.182;2022-08-25T07:13:50;15.60;99.90
29765;DHT22;16667;-33.884;151.182;2022-08-25T07:16:21;15.60;99.90
29765;DHT22;16667;-33.884;151.182;2022-08-25T07:18:52;15.50;99.90
29765;DHT22;16667;-33.884;151.182;2022-08-25T07:21:23;15.40;99.90
29765;DHT22;16667;-33.884;151.182;2022-08-25T07:23:54;15.20;99.90
29765;DHT22;16667;-33.884;151.182;2022-08-25T07:26:29;15.20;99.90
29765;DHT22;16667;-33.884;151.182;2022-08-25T07:29:05;15.10;99.90
29765;DHT22;16667;-33.884;151.182;2022-08-25T07:31:37;15.00;99.90
29765;DHT22;16667;-33.884;151.182;2022-08-25T07:34:11;15.00;99.90
29765;DHT22;16667;-33.884;151.182;2022-08-25T07:36:58;14.90;99.90
29765;DHT22;16667;-33.884;151.182;2022-08-25T07:39:31;14.80;99.90
29765;DHT22;16667;-33.884;151.182;2022-08-25T07:42:02;14.80;99.90
29765;DHT22;16667;-33.884;151.182;2022-08-25T07:44:36;14.70;99.90
29765;DHT22;16667;-33.884;151.182;2022-08-25T07:47:09;14.50;99.90
29765;DHT22;16667;-33.884;151.182;2022-08-25T07:49:42;14.50;99.90
29765;DHT22;16667;-33.884;151.182;2022-08-25T07:52:13;14.30;99.90
29765;DHT22;16667;-33.884;151.182;2022-08-25T07:54:44;14.20;99.90
29765;DHT22;16667;-33.884;151.182;2022-08-25T07:57:14;14.20;99.90
29765;DHT22;16667;-33.884;151.182;2022-08-25T07:59:47;14.10;99.90
29765;DHT22;16667;-33.884;151.182;2022-08-25T08:02:18;14.00;99.90
29765;DHT22;16667;-33.884;151.182;2022-08-25T08:04:49;13.90;99.90
29765;DHT22;16667;-33.884;151.182;2022-08-25T08:07:24;13.80;99.90
29765;DHT22;16667;-33.884;151.182;2022-08-25T08:09:56;13.80;99.90
29765;DHT22;16667;-33.884;151.182;2022-08-25T08:12:28;13.70;99.90
29765;DHT22;16667;-33.884;151.182;2022-08-25T08:15:01;13.70;99.90
29765;DHT22;16667;-33.884;151.182;2022-08-25T08:17:33;13.60;99.90
29765;DHT22;16667;-33.884;151.182;2022-08-25T08:20:04;13.60;99.90
29765;DHT22;16667;-33.884;151.182;2022-08-25T08:22:35;13.60;99.90
29765;DHT22;16667;-33.884;151.182;2022-08-25T08:25:07;13.50;99.90
29765;DHT22;16667;-33.884;151.182;2022-08-25T08:27:38;13.60;99.90
29765;DHT22;16667;-33.884;151.182;2022-08-25T08:30:13;13.50;99.90
29765;DHT22;16667;-33.884;151.182;2022-08-25T08:32:46;13.50;99.90
29765;DHT22;16667;-33.884;151.182;2022-08-25T08:35:17;13.50;99.90
29765;DHT22;16667;-33.884;151.182;2022-08-25T08:37:48;13.40;99.90
29765;DHT22;16667;-33.884;151.182;2022-08-25T08:40:19;13.40;99.90
29765;DHT22;16667;-33.884;151.182;2022-08-25T08:43:02;13.30;99.90
29765;DHT22;16667;-33.884;151.182;2022-08-25T08:45:38;13.40;99.90
29765;DHT22;16667;-33.884;151.182;2022-08-25T08:48:31;13.30;99.90
29765;DHT22;16667;-33.884;151.182;2022-08-25T08:51:11;13.40;99.90
29765;DHT22;16667;-33.884;151.182;2022-08-25T08:53:47;13.50;99.90
29765;DHT22;16667;-33.884;151.182;2022-08-25T08:56:22;13.50;99.90
29765;DHT22;16667;-33.884;151.182;2022-08-25T08:58:56;13.50;99.90
29765;DHT22;16667;-33.884;151.182;2022-08-25T09:01:32;13.60;99.90
29765;DHT22;16667;-33.884;151.182;2022-08-25T09:04:12;13.70;99.90
29765;DHT22;16667;-33.884;151.182;2022-08-25T09:06:45;13.70;99.90
29765;DHT22;16667;-33.884;151.182;2022-08-25T09:09:24;13.70;99.90
29765;DHT22;16667;-33.884;151.182;2022-08-25T09:12:03;13.70;99.90
29765;DHT22;16667;-33.884;151.182;2022-08-25T09:14:50;13.80;99.90
29765;DHT22;16667;-33.884;151.182;2022-08-25T09:17:41;13.80;99.90
29765;DHT22;16667;-33.884;151.182;2022-08-25T09:20:44;13.90;99.90
29765;DHT22;16667;-33.884;151.182;2022-08-25T09:23:27;14.00;99.90
29765;DHT22;16667;-33.884;151.182;2022-08-25T09:26:12;14.10;99.90
29765;DHT22;16667;-33.884;151.182;2022-08-25T09:28:49;14.20;99.90
29765;DHT22;16667;-33.884;151.182;2022-08-25T09:31:24;14.20;99.90
29765;DHT22;16667;-33.884;151.182;2022-08-25T09:34:02;14.20;99.90
29765;DHT22;16667;-33.884;151.182;2022-08-25T09:36:34;14.10;99.90
29765;DHT22;16667;-33.884;151.182;2022-08-25T09:39:05;14.10;99.90
29765;DHT22;16667;-33.884;151.182;2022-08-25T09:41:43;14.10;99.90
29765;DHT22;16667;-33.884;151.182;2022-08-25T09:44:20;14.10;99.90
29765;DHT22;16667;-33.884;151.182;2022-08-25T09:47:05;14.00;99.90
29765;DHT22;16667;-33.884;151.182;2022-08-25T09:49:40;13.50;99.90
29765;DHT22;16667;-33.884;151.182;2022-08-25T09:52:30;12.90;99.90
29765;DHT22;16667;-33.884;151.182;2022-08-25T09:55:29;12.40;99.90
29765;DHT22;16667;-33.884;151.182;2022-08-25T09:58:01;12.10;99.90
29765;DHT22;16667;-33.884;151.182;2022-08-25T10:00:42;11.90;99.90
29765;DHT22;16667;-33.884;151.182;2022-08-25T10:03:20;11.90;99.90
29765;DHT22;16667;-33.884;151.182;2022-08-25T10:06:02;11.90;99.90
29765;DHT22;16667;-33.884;151.182;2022-08-25T10:08:36;11.90;99.90
29765;DHT22;16667;-33.884;151.182;2022-08-25T10:11:10;11.90;99.90
29765;DHT22;16667;-33.884;151.182;2022-08-25T10:13:45;12.00;99.90
29765;DHT22;16667;-33.884;151.182;2022-08-25T10:16:23;12.00;99.90
29765;DHT22;16667;-33.884;151.182;2022-08-25T10:19:07;12.00;99.90
29765;DHT22;16667;-33.884;151.182;2022-08-25T10:21:40;12.00;99.90
29765;DHT22;16667;-33.884;151.182;2022-08-25T10:24:13;12.00;99.90
29765;DHT22;16667;-33.884;151.182;2022-08-25T10:26:54;11.90;99.90
29765;DHT22;16667;-33.884;151.182;2022-08-25T10:29:39;11.90;99.90
29765;DHT22;16667;-33.884;151.182;2022-08-25T10:32:15;12.00;99.90
29765;DHT22;16667;-33.884;151.182;2022-08-25T10:34:49;11.90;99.90
29765;DHT22;16667;-33.884;151.182;2022-08-25T10:37:31;11.90;99.90
29765;DHT22;16667;-33.884;151.182;2022-08-25T10:40:12;11.90;99.90
29765;DHT22;16667;-33.884;151.182;2022-08-25T10:42:57;12.00;99.90
29765;DHT22;16667;-33.884;151.182;2022-08-25T10:45:37;12.00;99.90
29765;DHT22;16667;-33.884;151.182;2022-08-25T10:48:33;12.10;99.90
29765;DHT22;16667;-33.884;151.182;2022-08-25T10:51:18;12.00;99.90
29765;DHT22;16667;-33.884;151.182;2022-08-25T10:53:59;12.10;99.90
29765;DHT22;16667;-33.884;151.182;2022-08-25T10:56:35;12.10;99.90
29765;DHT22;16667;-33.884;151.182;2022-08-25T10:59:29;12.10;99.90
29765;DHT22;16667;-33.884;151.182;2022-08-25T11:02:13;12.10;99.90
29765;DHT22;16667;-33.884;151.182;2022-08-25T11:04:54;12.10;99.90
29765;DHT22;16667;-33.884;151.182;2022-08-25T11:07:32;12.10;99.90
29765;DHT22;16667;-33.884;151.182;2022-08-25T11:10:11;12.20;99.90
29765;DHT22;16667;-33.884;151.182;2022-08-25T11:12:44;12.20;99.90
29765;DHT22;16667;-33.884;151.182;2022-08-25T11:15:22;12.20;99.90
29765;DHT22;16667;-33.884;151.182;2022-08-25T11:17:57;12.20;99.90
29765;DHT22;16667;-33.884;151.182;2022-08-25T11:20:34;12.20;99.90
29765;DHT22;16667;-33.884;151.182;2022-08-25T11:23:14;12.10;99.90
29765;DHT22;16667;-33.884;151.182;2022-08-25T11:25:51;12.20;99.90
29765;DHT22;16667;-33.884;151.182;2022-08-25T11:28:33;12.20;99.90
29765;DHT22;16667;-33.884;151.182;2022-08-25T11:31:05;12.20;99.90
29765;DHT22;16667;-33.884;151.182;2022-08-25T11:33:36;12.30;99.90
29765;DHT22;16667;-33.884;151.182;2022-08-25T11:36:23;12.30;99.90
29765;DHT22;16667;-33.884;151.182;2022-08-25T11:39:04;12.20;99.90
29765;DHT22;16667;-33.884;151.182;2022-08-25T11:41:51;12.20;99.90
29765;DHT22;16667;-33.884;151.182;2022-08-25T11:44:50;12.20;99.90
29765;DHT22;16667;-33.884;151.182;2022-08-25T11:47:48;12.20;99.90
29765;DHT22;16667;-33.884;151.182;2022-08-25T11:50:31;12.20;99.90
29765;DHT22;16667;-33.884;151.182;2022-08-25T11:53:18;12.20;99.90
29765;DHT22;16667;-33.884;151.182;2022-08-25T11:55:52;12.20;99.90
29765;DHT22;16667;-33.884;151.182;2022-08-25T11:58:41;12.20;99.90
29765;DHT22;16667;-33.884;151.182;2022-08-25T12:04:38;12.30;99.90
29765;DHT22;16667;-33.884;151.182;2022-08-25T12:07:21;12.30;99.90
29765;DHT22;16667;-33.884;151.182;2022-08-25T12:10:24;12.30;99.90
29765;DHT22;16667;-33.884;151.182;2022-08-25T12:16:01;12.30;99.90
29765;DHT22;16667;-33.884;151.182;2022-08-25T12:18:43;12.20;99.90
29765;DHT22;16667;-33.884;151.182;2022-08-25T12:21:29;12.20;99.90
29765;DHT22;16667;-33.884;151.182;2022-08-25T12:24:13;12.20;99.90
29765;DHT22;16667;-33.884;151.182;2022-08-25T12:26:54;12.20;99.90
29765;DHT22;16667;-33.884;151.182;2022-08-25T12:29:33;12.10;99.90
29765;DHT22;16667;-33.884;151.182;2022-08-25T12:35:30;12.10;99.90
29765;DHT22;16667;-33.884;151.182;2022-08-25T12:38:04;12.10;99.90
29765;DHT22;16667;-33.884;151.182;2022-08-25T12:40:37;12.10;99.90
29765;DHT22;16667;-33.884;151.182;2022-08-25T12:43:12;12.20;99.90
29765;DHT22;16667;-33.884;151.182;2022-08-25T12:45:53;12.20;99.90
29765;DHT22;16667;-33.884;151.182;2022-08-25T12:48:57;12.20;99.90
29765;DHT22;16667;-33.884;151.182;2022-08-25T12:51:44;12.20;99.90
29765;DHT22;16667;-33.884;151.182;2022-08-25T12:54:19;12.20;99.90
29765;DHT22;16667;-33.884;151.182;2022-08-25T12:56:54;12.20;99.90
29765;DHT22;16667;-33.884;151.182;2022-08-25T12:59:35;12.10;99.90
29765;DHT22;16667;-33.884;151.182;2022-08-25T13:05:48;12.10;99.90
29765;DHT22;16667;-33.884;151.182;2022-08-25T13:08:40;12.00;99.90
29765;DHT22;16667;-33.884;151.182;2022-08-25T13:11:19;12.00;99.90
29765;DHT22;16667;-33.884;151.182;2022-08-25T13:13:55;12.00;99.90
29765;DHT22;16667;-33.884;151.182;2022-08-25T13:16:28;12.00;99.90
29765;DHT22;16667;-33.884;151.182;2022-08-25T13:19:04;12.00;99.90
29765;DHT22;16667;-33.884;151.182;2022-08-25T13:21:38;12.00;99.90
29765;DHT22;16667;-33.884;151.182;2022-08-25T13:24:14;12.00;99.90
29765;DHT22;16667;-33.884;151.182;2022-08-25T13:26:55;12.10;99.90
29765;DHT22;16667;-33.884;151.182;2022-08-25T13:29:28;12.00;99.90
29765;DHT22;16667;-33.884;151.182;2022-08-25T13:32:01;12.10;99.90
29765;DHT22;16667;-33.884;151.182;2022-08-25T13:34:33;12.10;99.90
29765;DHT22;16667;-33.884;151.182;2022-08-25T13:37:14;12.00;99.90
29765;DHT22;16667;-33.884;151.182;2022-08-25T13:40:09;12.00;99.90
29765;DHT22;16667;-33.884;151.182;2022-08-25T13:42:42;12.00;99.90
29765;DHT22;16667;-33.884;151.182;2022-08-25T13:45:16;12.00;99.90
29765;DHT22;16667;-33.884;151.182;2022-08-25T13:47:48;12.00;99.90
29765;DHT22;16667;-33.884;151.182;2022-08-25T13:50:27;12.00;99.90
29765;DHT22;16667;-33.884;151.182;2022-08-25T13:53:01;11.90;99.90
29765;DHT22;16667;-33.884;151.182;2022-08-25T13:55:36;11.90;99.90
29765;DHT22;16667;-33.884;151.182;2022-08-25T13:58:12;11.80;99.90
29765;DHT22;16667;-33.884;151.182;2022-08-25T14:00:46;11.80;99.90
29765;DHT22;16667;-33.884;151.182;2022-08-25T14:03:32;11.70;99.90
29765;DHT22;16667;-33.884;151.182;2022-08-25T14:06:08;11.70;99.90
29765;DHT22;16667;-33.884;151.182;2022-08-25T14:08:45;11.60;99.90
29765;DHT22;16667;-33.884;151.182;2022-08-25T14:11:29;11.60;99.90
29765;DHT22;16667;-33.884;151.182;2022-08-25T14:14:01;11.60;99.90
29765;DHT22;16667;-33.884;151.182;2022-08-25T14:16:38;11.70;99.90
29765;DHT22;16667;-33.884;151.182;2022-08-25T14:19:14;11.70;99.90
29765;DHT22;16667;-33.884;151.182;2022-08-25T14:21:46;11.60;99.90
29765;DHT22;16667;-33.884;151.182;2022-08-25T14:24:21;11.60;99.90
29765;DHT22;16667;-33.884;151.182;2022-08-25T14:26:53;11.50;99.90
29765;DHT22;16667;-33.884;151.182;2022-08-25T14:29:24;11.40;99.90
29765;DHT22;16667;-33.884;151.182;2022-08-25T14:31:55;11.50;99.90
29765;DHT22;16667;-33.884;151.182;2022-08-25T14:34:31;11.50;99.90
29765;DHT22;16667;-33.884;151.182;2022-08-25T14:37:07;11.60;99.90
29765;DHT22;16667;-33.884;151.182;2022-08-25T14:39:41;11.60;99.90
29765;DHT22;16667;-33.884;151.182;2022-08-25T14:42:12;11.50;99.90
29765;DHT22;16667;-33.884;151.182;2022-08-25T14:44:43;11.50;99.90
29765;DHT22;16667;-33.884;151.182;2022-08-25T14:47:14;11.50;99.90
29765;DHT22;16667;-33.884;151.182;2022-08-25T14:49:46;11.40;99.90
29765;DHT22;16667;-33.884;151.182;2022-08-25T14:52:19;11.50;99.90
29765;DHT22;16667;-33.884;151.182;2022-08-25T14:54:53;11.50;99.90
29765;DHT22;16667;-33.884;151.182;2022-08-25T14:57:24;11.50;99.90
29765;DHT22;16667;-33.884;151.182;2022-08-25T14:59:55;11.40;99.90
29765;DHT22;16667;-33.884;151.182;2022-08-25T15:02:27;11.40;99.90
29765;DHT22;16667;-33.884;151.182;2022-08-25T15:04:59;11.40;99.90
29765;DHT22;16667;-33.884;151.182;2022-08-25T15:07:33;11.30;99.90
29765;DHT22;16667;-33.884;151.182;2022-08-25T15:10:22;11.30;99.90
29765;DHT22;16667;-33.884;151.182;2022-08-25T15:12:53;11.30;99.90
29765;DHT22;16667;-33.884;151.182;2022-08-25T15:15:23;11.20;99.90
29765;DHT22;16667;-33.884;151.182;2022-08-25T15:17:55;11.10;99.90
29765;DHT22;16667;-33.884;151.182;2022-08-25T15:20:35;11.10;99.90
29765;DHT22;16667;-33.884;151.182;2022-08-25T15:23:06;11.10;99.90
29765;DHT22;16667;-33.884;151.182;2022-08-25T15:25:41;11.10;99.90
29765;DHT22;16667;-33.884;151.182;2022-08-25T15:28:12;11.10;99.90
29765;DHT22;16667;-33.884;151.182;2022-08-25T15:30:43;11.10;99.90
29765;DHT22;16667;-33.884;151.182;2022-08-25T15:33:14;11.10;99.90
29765;DHT22;16667;-33.884;151.182;2022-08-25T15:35:45;11.10;99.90
29765;DHT22;16667;-33.884;151.182;2022-08-25T15:38:16;11.10;99.90
29765;DHT22;16667;-33.884;151.182;2022-08-25T15:40:49;11.00;99.90
29765;DHT22;16667;-33.884;151.182;2022-08-25T15:43:20;11.00;99.90
29765;DHT22;16667;-33.884;151.182;2022-08-25T15:45:50;11.00;99.90
29765;DHT22;16667;-33.884;151.182;2022-08-25T15:48:21;11.00;99.90